sensor_id;sensor_type;location;lat;lon;timestamp;P1;durP1;ratioP1;P2;durP2;ratioP2
58412;SDS011;44209;52.952;6.790;2023-05-10T00:01:05;10.35;;;9.27;;
58412;SDS011;44209;52.952;6.790;2023-05-10T00:03:30;10.77;;;9.27;;
58412;SDS011;44209;52.952;6.790;2023-05-10T00:05:56;14.70;;;9.73;;
58412;SDS011;44209;52.952;6.790;2023-05-10T00:08:22;11.25;;;10.05;;
58412;SDS011;44209;52.952;6.790;2023-05-10T00:10:48;12.55;;;11.25;;
58412;SDS011;44209;52.952;6.790;2023-05-10T00:13:13;12.07;;;10.48;;
58412;SDS011;44209;52.952;6.790;2023-05-10T00:15:39;12.00;;;10.18;;
58412;SDS011;44209;52.952;6.790;2023-05-10T00:18:05;12.20;;;9.95;;
58412;SDS011;44209;52.952;6.790;2023-05-10T00:20:31;15.20;;;10.88;;
58412;SDS011;44209;52.952;6.790;2023-05-10T00:22:57;12.95;;;10.93;;
58412;SDS011;44209;52.952;6.790;2023-05-10T00:25:22;12.00;;;10.43;;
58412;SDS011;44209;52.952;6.790;2023-05-10T00:27:48;12.82;;;10.98;;
58412;SDS011;44209;52.952;6.790;2023-05-10T00:30:16;13.93;;;12.07;;
58412;SDS011;44209;52.952;6.790;2023-05-10T00:32:42;15.30;;;11.02;;
58412;SDS011;44209;52.952;6.790;2023-05-10T00:35:08;14.55;;;11.32;;
58412;SDS011;44209;52.952;6.790;2023-05-10T00:37:34;14.25;;;11.35;;
58412;SDS011;44209;52.952;6.790;2023-05-10T00:40:00;12.98;;;10.75;;
58412;SDS011;44209;52.952;6.790;2023-05-10T00:42:26;13.48;;;11.27;;
58412;SDS011;44209;52.952;6.790;2023-05-10T00:44:52;14.98;;;11.50;;
58412;SDS011;44209;52.952;6.790;2023-05-10T00:47:17;13.18;;;11.65;;
58412;SDS011;44209;52.952;6.790;2023-05-10T00:49:43;12.95;;;10.82;;
58412;SDS011;44209;52.952;6.790;2023-05-10T00:52:09;12.55;;;10.43;;
58412;SDS011;44209;52.952;6.790;2023-05-10T00:54:35;15.82;;;11.93;;
58412;SDS011;44209;52.952;6.790;2023-05-10T00:57:02;14.35;;;11.45;;
58412;SDS011;44209;52.952;6.790;2023-05-10T00:59:28;15.90;;;12.38;;
58412;SDS011;44209;52.952;6.790;2023-05-10T01:01:54;14.75;;;11.80;;
58412;SDS011;44209;52.952;6.790;2023-05-10T01:04:20;14.15;;;11.82;;
58412;SDS011;44209;52.952;6.790;2023-05-10T01:06:50;13.98;;;11.98;;
58412;SDS011;44209;52.952;6.790;2023-05-10T01:09:18;16.13;;;12.70;;
58412;SDS011;44209;52.952;6.790;2023-05-10T01:11:44;14.13;;;10.90;;
58412;SDS011;44209;52.952;6.790;2023-05-10T01:14:10;13.70;;;11.05;;
58412;SDS011;44209;52.952;6.790;2023-05-10T01:16:37;13.35;;;11.90;;
58412;SDS011;44209;52.952;6.790;2023-05-10T01:19:21;15.98;;;12.70;;
58412;SDS011;44209;52.952;6.790;2023-05-10T01:30:32;12.95;;;10.00;;
58412;SDS011;44209;52.952;6.790;2023-05-10T01:32:55;13.27;;;11.70;;
58412;SDS011;44209;52.952;6.790;2023-05-10T01:38:49;13.40;;;10.93;;
58412;SDS011;44209;52.952;6.790;2023-05-10T01:46:53;15.98;;;11.40;;
58412;SDS011;44209;52.952;6.790;2023-05-10T01:49:31;17.42;;;11.50;;
58412;SDS011;44209;52.952;6.790;2023-05-10T01:52:06;13.35;;;10.30;;
58412;SDS011;44209;52.952;6.790;2023-05-10T01:54:34;14.50;;;10.98;;
58412;SDS011;44209;52.952;6.790;2023-05-10T01:57:05;14.20;;;10.57;;
58412;SDS011;44209;52.952;6.790;2023-05-10T01:59:37;13.45;;;10.13;;
58412;SDS011;44209;52.952;6.790;2023-05-10T02:02:05;13.90;;;11.00;;
58412;SDS011;44209;52.952;6.790;2023-05-10T02:04:37;14.63;;;10.67;;
58412;SDS011;44209;52.952;6.790;2023-05-10T02:07:05;14.98;;;10.68;;
58412;SDS011;44209;52.952;6.790;2023-05-10T02:09:32;14.05;;;10.55;;
58412;SDS011;44209;52.952;6.790;2023-05-10T02:11:59;13.90;;;10.35;;
58412;SDS011;44209;52.952;6.790;2023-05-10T02:14:30;13.25;;;10.27;;
58412;SDS011;44209;52.952;6.790;2023-05-10T02:17:00;14.50;;;10.57;;
58412;SDS011;44209;52.952;6.790;2023-05-10T02:19:29;12.90;;;9.48;;
58412;SDS011;44209;52.952;6.790;2023-05-10T02:21:56;13.27;;;9.48;;
58412;SDS011;44209;52.952;6.790;2023-05-10T02:24:23;12.60;;;9.85;;
58412;SDS011;44209;52.952;6.790;2023-05-10T02:26:51;12.93;;;9.30;;
58412;SDS011;44209;52.952;6.790;2023-05-10T02:29:20;13.30;;;9.88;;
58412;SDS011;44209;52.952;6.790;2023-05-10T02:31:49;14.60;;;10.45;;
58412;SDS011;44209;52.952;6.790;2023-05-10T02:34:17;14.50;;;10.38;;
58412;SDS011;44209;52.952;6.790;2023-05-10T02:36:46;15.95;;;10.80;;
58412;SDS011;44209;52.952;6.790;2023-05-10T02:39:13;14.60;;;10.35;;
58412;SDS011;44209;52.952;6.790;2023-05-10T02:41:41;14.25;;;10.15;;
58412;SDS011;44209;52.952;6.790;2023-05-10T02:44:08;14.23;;;10.10;;
58412;SDS011;44209;52.952;6.790;2023-05-10T02:46:35;15.10;;;10.35;;
58412;SDS011;44209;52.952;6.790;2023-05-10T02:49:02;17.13;;;10.48;;
58412;SDS011;44209;52.952;6.790;2023-05-10T02:51:30;14.40;;;10.93;;
58412;SDS011;44209;52.952;6.790;2023-05-10T02:53:57;12.90;;;10.10;;
58412;SDS011;44209;52.952;6.790;2023-05-10T02:56:30;14.55;;;9.98;;
58412;SDS011;44209;52.952;6.790;2023-05-10T02:58:58;15.43;;;10.45;;
58412;SDS011;44209;52.952;6.790;2023-05-10T03:01:24;15.57;;;11.23;;
58412;SDS011;44209;52.952;6.790;2023-05-10T03:03:49;14.85;;;10.45;;
58412;SDS011;44209;52.952;6.790;2023-05-10T03:06:18;16.83;;;11.27;;
58412;SDS011;44209;52.952;6.790;2023-05-10T03:08:44;15.73;;;11.95;;
58412;SDS011;44209;52.952;6.790;2023-05-10T03:11:16;15.70;;;10.82;;
58412;SDS011;44209;52.952;6.790;2023-05-10T03:13:55;17.33;;;11.15;;
58412;SDS011;44209;52.952;6.790;2023-05-10T03:16:35;15.63;;;10.85;;
58412;SDS011;44209;52.952;6.790;2023-05-10T03:19:12;14.50;;;10.75;;
58412;SDS011;44209;52.952;6.790;2023-05-10T03:21:47;14.27;;;10.00;;
58412;SDS011;44209;52.952;6.790;2023-05-10T03:24:16;14.15;;;10.10;;
58412;SDS011;44209;52.952;6.790;2023-05-10T03:26:46;13.93;;;10.40;;
58412;SDS011;44209;52.952;6.790;2023-05-10T03:29:14;15.35;;;11.30;;
58412;SDS011;44209;52.952;6.790;2023-05-10T03:31:40;15.85;;;11.00;;
58412;SDS011;44209;52.952;6.790;2023-05-10T03:34:06;17.30;;;10.77;;
58412;SDS011;44209;52.952;6.790;2023-05-10T03:36:32;17.15;;;11.35;;
58412;SDS011;44209;52.952;6.790;2023-05-10T03:38:58;14.85;;;10.73;;
58412;SDS011;44209;52.952;6.790;2023-05-10T03:41:24;16.35;;;11.50;;
58412;SDS011;44209;52.952;6.790;2023-05-10T03:43:50;15.93;;;11.02;;
58412;SDS011;44209;52.952;6.790;2023-05-10T03:46:16;16.35;;;11.35;;
58412;SDS011;44209;52.952;6.790;2023-05-10T03:48:42;13.23;;;10.05;;
58412;SDS011;44209;52.952;6.790;2023-05-10T03:51:08;15.50;;;11.48;;
58412;SDS011;44209;52.952;6.790;2023-05-10T03:53:33;17.63;;;12.40;;
58412;SDS011;44209;52.952;6.790;2023-05-10T03:55:59;16.83;;;12.23;;
58412;SDS011;44209;52.952;6.790;2023-05-10T03:58:25;16.60;;;11.75;;
58412;SDS011;44209;52.952;6.790;2023-05-10T04:00:51;15.63;;;11.63;;
58412;SDS011;44209;52.952;6.790;2023-05-10T04:03:17;16.25;;;11.35;;
58412;SDS011;44209;52.952;6.790;2023-05-10T04:05:43;14.73;;;11.38;;
58412;SDS011;44209;52.952;6.790;2023-05-10T04:08:09;16.65;;;12.07;;
58412;SDS011;44209;52.952;6.790;2023-05-10T04:10:34;15.18;;;11.82;;
58412;SDS011;44209;52.952;6.790;2023-05-10T04:13:00;13.57;;;10.20;;
58412;SDS011;44209;52.952;6.790;2023-05-10T04:15:26;15.52;;;10.35;;
58412;SDS011;44209;52.952;6.790;2023-05-10T04:17:51;12.60;;;10.05;;
58412;SDS011;44209;52.952;6.790;2023-05-10T04:20:18;12.07;;;9.43;;
58412;SDS011;44209;52.952;6.790;2023-05-10T04:22:44;12.35;;;9.50;;
58412;SDS011;44209;52.952;6.790;2023-05-10T04:25:09;11.50;;;9.55;;
58412;SDS011;44209;52.952;6.790;2023-05-10T04:27:35;12.27;;;9.55;;
58412;SDS011;44209;52.952;6.790;2023-05-10T04:30:02;12.77;;;9.85;;
58412;SDS011;44209;52.952;6.790;2023-05-10T04:32:28;10.85;;;8.70;;
58412;SDS011;44209;52.952;6.790;2023-05-10T04:34:54;9.98;;;8.98;;
58412;SDS011;44209;52.952;6.790;2023-05-10T04:37:20;10.35;;;9.18;;
58412;SDS011;44209;52.952;6.790;2023-05-10T04:39:46;10.73;;;8.73;;
58412;SDS011;44209;52.952;6.790;2023-05-10T04:42:12;13.38;;;8.82;;
58412;SDS011;44209;52.952;6.790;2023-05-10T04:44:40;11.30;;;8.55;;
58412;SDS011;44209;52.952;6.790;2023-05-10T04:47:06;10.65;;;8.25;;
58412;SDS011;44209;52.952;6.790;2023-05-10T04:49:31;10.43;;;8.00;;
58412;SDS011;44209;52.952;6.790;2023-05-10T04:51:57;12.90;;;9.48;;
58412;SDS011;44209;52.952;6.790;2023-05-10T04:54:23;10.25;;;8.63;;
58412;SDS011;44209;52.952;6.790;2023-05-10T04:56:49;10.68;;;8.52;;
58412;SDS011;44209;52.952;6.790;2023-05-10T04:59:15;11.05;;;8.93;;
58412;SDS011;44209;52.952;6.790;2023-05-10T05:01:40;12.52;;;9.55;;
58412;SDS011;44209;52.952;6.790;2023-05-10T05:04:06;11.38;;;9.13;;
58412;SDS011;44209;52.952;6.790;2023-05-10T05:06:32;12.45;;;9.52;;
58412;SDS011;44209;52.952;6.790;2023-05-10T05:08:57;10.60;;;8.73;;
58412;SDS011;44209;52.952;6.790;2023-05-10T05:11:23;12.77;;;8.75;;
58412;SDS011;44209;52.952;6.790;2023-05-10T05:13:50;11.02;;;8.73;;
58412;SDS011;44209;52.952;6.790;2023-05-10T05:16:16;9.80;;;8.77;;
58412;SDS011;44209;52.952;6.790;2023-05-10T05:18:41;10.25;;;8.38;;
58412;SDS011;44209;52.952;6.790;2023-05-10T05:21:17;9.90;;;8.48;;
58412;SDS011;44209;52.952;6.790;2023-05-10T05:23:43;8.35;;;7.40;;
58412;SDS011;44209;52.952;6.790;2023-05-10T05:26:09;9.48;;;7.90;;
58412;SDS011;44209;52.952;6.790;2023-05-10T05:28:35;10.32;;;8.00;;
58412;SDS011;44209;52.952;6.790;2023-05-10T05:31:05;10.30;;;7.38;;
58412;SDS011;44209;52.952;6.790;2023-05-10T05:33:35;9.50;;;7.72;;
58412;SDS011;44209;52.952;6.790;2023-05-10T05:36:01;8.25;;;7.32;;
58412;SDS011;44209;52.952;6.790;2023-05-10T05:38:28;11.30;;;7.97;;
58412;SDS011;44209;52.952;6.790;2023-05-10T05:40:54;8.43;;;6.93;;
58412;SDS011;44209;52.952;6.790;2023-05-10T05:43:20;9.63;;;7.70;;
58412;SDS011;44209;52.952;6.790;2023-05-10T05:45:45;10.25;;;7.95;;
58412;SDS011;44209;52.952;6.790;2023-05-10T05:48:11;10.20;;;7.80;;
58412;SDS011;44209;52.952;6.790;2023-05-10T05:50:37;8.35;;;7.38;;
58412;SDS011;44209;52.952;6.790;2023-05-10T05:53:03;9.13;;;7.70;;
58412;SDS011;44209;52.952;6.790;2023-05-10T05:55:28;9.05;;;7.53;;
58412;SDS011;44209;52.952;6.790;2023-05-10T05:57:56;10.90;;;8.27;;
58412;SDS011;44209;52.952;6.790;2023-05-10T06:00:22;10.80;;;8.05;;
58412;SDS011;44209;52.952;6.790;2023-05-10T06:02:48;10.27;;;7.47;;
58412;SDS011;44209;52.952;6.790;2023-05-10T06:05:14;11.35;;;7.90;;
58412;SDS011;44209;52.952;6.790;2023-05-10T06:07:40;10.38;;;8.10;;
58412;SDS011;44209;52.952;6.790;2023-05-10T06:10:07;11.52;;;8.27;;
58412;SDS011;44209;52.952;6.790;2023-05-10T06:12:33;9.82;;;7.90;;
58412;SDS011;44209;52.952;6.790;2023-05-10T06:14:59;12.30;;;7.78;;
58412;SDS011;44209;52.952;6.790;2023-05-10T06:17:28;7.95;;;6.90;;
58412;SDS011;44209;52.952;6.790;2023-05-10T06:19:54;9.50;;;6.63;;
58412;SDS011;44209;52.952;6.790;2023-05-10T06:22:21;7.80;;;5.95;;
58412;SDS011;44209;52.952;6.790;2023-05-10T06:24:49;6.45;;;5.85;;
58412;SDS011;44209;52.952;6.790;2023-05-10T06:27:15;7.25;;;5.35;;
58412;SDS011;44209;52.952;6.790;2023-05-10T06:29:42;6.53;;;5.40;;
58412;SDS011;44209;52.952;6.790;2023-05-10T06:32:08;9.45;;;6.00;;
58412;SDS011;44209;52.952;6.790;2023-05-10T06:34:34;8.70;;;5.53;;
58412;SDS011;44209;52.952;6.790;2023-05-10T06:36:59;5.82;;;5.22;;
58412;SDS011;44209;52.952;6.790;2023-05-10T06:39:25;6.18;;;5.10;;
58412;SDS011;44209;52.952;6.790;2023-05-10T06:41:51;5.90;;;4.88;;
58412;SDS011;44209;52.952;6.790;2023-05-10T06:44:17;5.47;;;4.68;;
58412;SDS011;44209;52.952;6.790;2023-05-10T06:46:43;5.40;;;4.90;;
58412;SDS011;44209;52.952;6.790;2023-05-10T06:49:08;5.72;;;4.32;;
58412;SDS011;44209;52.952;6.790;2023-05-10T06:51:34;4.63;;;4.22;;
58412;SDS011;44209;52.952;6.790;2023-05-10T06:54:00;4.43;;;4.03;;
58412;SDS011;44209;52.952;6.790;2023-05-10T06:56:26;4.45;;;4.05;;
58412;SDS011;44209;52.952;6.790;2023-05-10T06:58:51;4.10;;;3.33;;
58412;SDS011;44209;52.952;6.790;2023-05-10T07:01:17;3.72;;;3.42;;
58412;SDS011;44209;52.952;6.790;2023-05-10T07:03:43;4.15;;;3.75;;
58412;SDS011;44209;52.952;6.790;2023-05-10T07:06:09;4.00;;;3.60;;
58412;SDS011;44209;52.952;6.790;2023-05-10T07:08:34;4.10;;;3.70;;
58412;SDS011;44209;52.952;6.790;2023-05-10T07:11:01;4.35;;;3.63;;
58412;SDS011;44209;52.952;6.790;2023-05-10T07:13:32;3.75;;;3.35;;
58412;SDS011;44209;52.952;6.790;2023-05-10T07:15:59;4.15;;;3.20;;
58412;SDS011;44209;52.952;6.790;2023-05-10T07:18:27;3.13;;;2.83;;
58412;SDS011;44209;52.952;6.790;2023-05-10T07:20:52;3.50;;;3.20;;
58412;SDS011;44209;52.952;6.790;2023-05-10T07:23:18;3.50;;;3.20;;
58412;SDS011;44209;52.952;6.790;2023-05-10T07:25:47;4.18;;;3.20;;
58412;SDS011;44209;52.952;6.790;2023-05-10T07:28:14;3.10;;;2.80;;
58412;SDS011;44209;52.952;6.790;2023-05-10T07:30:41;3.28;;;2.83;;
58412;SDS011;44209;52.952;6.790;2023-05-10T07:33:08;2.60;;;2.40;;
58412;SDS011;44209;52.952;6.790;2023-05-10T07:35:34;2.30;;;2.10;;
58412;SDS011;44209;52.952;6.790;2023-05-10T07:38:01;3.30;;;2.97;;
58412;SDS011;44209;52.952;6.790;2023-05-10T07:40:27;2.35;;;2.15;;
58412;SDS011;44209;52.952;6.790;2023-05-10T07:42:53;1.17;;;1.08;;
58412;SDS011;44209;52.952;6.790;2023-05-10T07:45:19;1.50;;;1.38;;
58412;SDS011;44209;52.952;6.790;2023-05-10T07:47:45;0.80;;;0.80;;
58412;SDS011;44209;52.952;6.790;2023-05-10T07:50:10;1.65;;;0.70;;
58412;SDS011;44209;52.952;6.790;2023-05-10T07:52:36;0.80;;;0.70;;
58412;SDS011;44209;52.952;6.790;2023-05-10T07:55:02;1.38;;;0.68;;
58412;SDS011;44209;52.952;6.790;2023-05-10T07:57:28;0.93;;;0.63;;
58412;SDS011;44209;52.952;6.790;2023-05-10T07:59:54;1.10;;;0.70;;
58412;SDS011;44209;52.952;6.790;2023-05-10T08:02:19;0.70;;;0.70;;
58412;SDS011;44209;52.952;6.790;2023-05-10T08:04:45;1.52;;;0.80;;
58412;SDS011;44209;52.952;6.790;2023-05-10T08:07:11;1.10;;;1.10;;
58412;SDS011;44209;52.952;6.790;2023-05-10T08:09:37;2.25;;;0.90;;
58412;SDS011;44209;52.952;6.790;2023-05-10T08:12:02;1.88;;;1.60;;
58412;SDS011;44209;52.952;6.790;2023-05-10T08:14:28;2.08;;;1.45;;
58412;SDS011;44209;52.952;6.790;2023-05-10T08:16:55;6.05;;;2.08;;
58412;SDS011;44209;52.952;6.790;2023-05-10T08:19:21;4.15;;;2.70;;
58412;SDS011;44209;52.952;6.790;2023-05-10T08:21:47;2.55;;;2.28;;
58412;SDS011;44209;52.952;6.790;2023-05-10T08:24:13;3.42;;;2.50;;
58412;SDS011;44209;52.952;6.790;2023-05-10T08:26:40;3.17;;;2.85;;
58412;SDS011;44209;52.952;6.790;2023-05-10T08:29:05;2.75;;;2.53;;
58412;SDS011;44209;52.952;6.790;2023-05-10T08:31:31;3.53;;;2.90;;
58412;SDS011;44209;52.952;6.790;2023-05-10T08:33:57;3.50;;;2.92;;
58412;SDS011;44209;52.952;6.790;2023-05-10T08:36:23;2.88;;;2.45;;
58412;SDS011;44209;52.952;6.790;2023-05-10T08:38:52;2.88;;;2.50;;
58412;SDS011;44209;52.952;6.790;2023-05-10T08:41:22;4.38;;;2.83;;
58412;SDS011;44209;52.952;6.790;2023-05-10T08:43:52;3.72;;;2.85;;
58412;SDS011;44209;52.952;6.790;2023-05-10T08:46:20;2.67;;;2.30;;
58412;SDS011;44209;52.952;6.790;2023-05-10T08:48:47;3.22;;;2.90;;
58412;SDS011;44209;52.952;6.790;2023-05-10T08:51:17;3.42;;;3.13;;
58412;SDS011;44209;52.952;6.790;2023-05-10T08:53:44;3.20;;;2.90;;
58412;SDS011;44209;52.952;6.790;2023-05-10T08:56:11;3.17;;;2.95;;
58412;SDS011;44209;52.952;6.790;2023-05-10T08:58:37;3.63;;;3.33;;
58412;SDS011;44209;52.952;6.790;2023-05-10T09:01:03;4.65;;;3.80;;
58412;SDS011;44209;52.952;6.790;2023-05-10T09:03:30;4.22;;;3.42;;
58412;SDS011;44209;52.952;6.790;2023-05-10T09:05:56;4.15;;;3.78;;
58412;SDS011;44209;52.952;6.790;2023-05-10T09:08:25;9.27;;;3.78;;
58412;SDS011;44209;52.952;6.790;2023-05-10T09:10:52;4.43;;;3.70;;
58412;SDS011;44209;52.952;6.790;2023-05-10T09:13:19;4.38;;;3.97;;
58412;SDS011;44209;52.952;6.790;2023-05-10T09:15:51;4.65;;;4.00;;
58412;SDS011;44209;52.952;6.790;2023-05-10T09:18:18;4.10;;;3.70;;
58412;SDS011;44209;52.952;6.790;2023-05-10T09:20:44;4.15;;;3.75;;
58412;SDS011;44209;52.952;6.790;2023-05-10T09:23:10;4.10;;;3.70;;
58412;SDS011;44209;52.952;6.790;2023-05-10T09:25:35;5.13;;;3.75;;
58412;SDS011;44209;52.952;6.790;2023-05-10T09:28:05;4.45;;;4.05;;
58412;SDS011;44209;52.952;6.790;2023-05-10T09:30:32;4.72;;;3.30;;
58412;SDS011;44209;52.952;6.790;2023-05-10T09:32:59;4.80;;;3.65;;
58412;SDS011;44209;52.952;6.790;2023-05-10T09:35:26;5.78;;;3.50;;
58412;SDS011;44209;52.952;6.790;2023-05-10T09:37:54;2.97;;;2.78;;
58412;SDS011;44209;52.952;6.790;2023-05-10T09:40:21;4.47;;;2.92;;
58412;SDS011;44209;52.952;6.790;2023-05-10T09:42:53;2.40;;;2.17;;
58412;SDS011;44209;52.952;6.790;2023-05-10T09:45:32;3.03;;;2.47;;
58412;SDS011;44209;52.952;6.790;2023-05-10T09:48:00;4.35;;;2.60;;
58412;SDS011;44209;52.952;6.790;2023-05-10T09:50:27;3.17;;;2.88;;
58412;SDS011;44209;52.952;6.790;2023-05-10T09:52:55;2.88;;;2.42;;
58412;SDS011;44209;52.952;6.790;2023-05-10T09:55:24;2.92;;;2.72;;
58412;SDS011;44209;52.952;6.790;2023-05-10T09:58:05;3.78;;;2.90;;
58412;SDS011;44209;52.952;6.790;2023-05-10T10:00:39;3.70;;;2.97;;
58412;SDS011;44209;52.952;6.790;2023-05-10T10:03:06;4.75;;;3.30;;
58412;SDS011;44209;52.952;6.790;2023-05-10T10:05:39;5.30;;;3.58;;
58412;SDS011;44209;52.952;6.790;2023-05-10T10:08:07;3.90;;;3.50;;
58412;SDS011;44209;52.952;6.790;2023-05-10T10:10:33;4.43;;;4.03;;
58412;SDS011;44209;52.952;6.790;2023-05-10T10:12:59;5.93;;;4.15;;
58412;SDS011;44209;52.952;6.790;2023-05-10T10:15:26;5.55;;;4.43;;
58412;SDS011;44209;52.952;6.790;2023-05-10T10:17:52;5.63;;;5.00;;
58412;SDS011;44209;52.952;6.790;2023-05-10T10:20:19;6.13;;;5.53;;
58412;SDS011;44209;52.952;6.790;2023-05-10T10:22:46;7.10;;;5.70;;
58412;SDS011;44209;52.952;6.790;2023-05-10T10:25:16;6.35;;;5.53;;
58412;SDS011;44209;52.952;6.790;2023-05-10T10:35:37;7.22;;;5.25;;
58412;SDS011;44209;52.952;6.790;2023-05-10T10:38:03;6.53;;;4.60;;
58412;SDS011;44209;52.952;6.790;2023-05-10T10:40:30;5.43;;;4.88;;
58412;SDS011;44209;52.952;6.790;2023-05-10T10:42:57;6.38;;;5.28;;
58412;SDS011;44209;52.952;6.790;2023-05-10T10:45:43;7.70;;;5.43;;
58412;SDS011;44209;52.952;6.790;2023-05-10T10:48:32;6.53;;;5.60;;
58412;SDS011;44209;52.952;6.790;2023-05-10T10:50:58;6.68;;;5.85;;
58412;SDS011;44209;52.952;6.790;2023-05-10T10:53:27;6.85;;;5.70;;
58412;SDS011;44209;52.952;6.790;2023-05-10T10:56:12;7.93;;;5.63;;
58412;SDS011;44209;52.952;6.790;2023-05-10T10:58:40;6.95;;;5.80;;
58412;SDS011;44209;52.952;6.790;2023-05-10T11:01:13;6.88;;;6.18;;
58412;SDS011;44209;52.952;6.790;2023-05-10T11:03:41;8.20;;;6.13;;
58412;SDS011;44209;52.952;6.790;2023-05-10T11:06:33;6.57;;;5.85;;
58412;SDS011;44209;52.952;6.790;2023-05-10T11:09:07;8.10;;;6.00;;
58412;SDS011;44209;52.952;6.790;2023-05-10T11:11:34;6.75;;;6.03;;
58412;SDS011;44209;52.952;6.790;2023-05-10T11:14:04;7.07;;;6.00;;
58412;SDS011;44209;52.952;6.790;2023-05-10T11:16:42;6.60;;;5.82;;
58412;SDS011;44209;52.952;6.790;2023-05-10T11:19:13;7.88;;;6.15;;
58412;SDS011;44209;52.952;6.790;2023-05-10T11:24:40;7.63;;;6.28;;
58412;SDS011;44209;52.952;6.790;2023-05-10T11:27:23;11.60;;;6.22;;
58412;SDS011;44209;52.952;6.790;2023-05-10T11:29:52;7.97;;;5.72;;
58412;SDS011;44209;52.952;6.790;2023-05-10T11:32:19;7.82;;;5.90;;
58412;SDS011;44209;52.952;6.790;2023-05-10T11:34:46;6.38;;;4.63;;
58412;SDS011;44209;52.952;6.790;2023-05-10T11:37:15;9.57;;;5.80;;
58412;SDS011;44209;52.952;6.790;2023-05-10T11:39:45;9.07;;;6.07;;
58412;SDS011;44209;52.952;6.790;2023-05-10T11:44:46;7.13;;;5.65;;
58412;SDS011;44209;52.952;6.790;2023-05-10T11:47:18;19.75;;;6.38;;
58412;SDS011;44209;52.952;6.790;2023-05-10T11:52:28;6.28;;;5.28;;
58412;SDS011;44209;52.952;6.790;2023-05-10T11:54:54;7.75;;;5.32;;
58412;SDS011;44209;52.952;6.790;2023-05-10T11:57:21;8.80;;;5.03;;
58412;SDS011;44209;52.952;6.790;2023-05-10T11:59:56;6.95;;;5.18;;
58412;SDS011;44209;52.952;6.790;2023-05-10T12:02:22;6.68;;;5.13;;
58412;SDS011;44209;52.952;6.790;2023-05-10T12:04:54;6.63;;;5.40;;
58412;SDS011;44209;52.952;6.790;2023-05-10T12:07:21;7.38;;;5.20;;
58412;SDS011;44209;52.952;6.790;2023-05-10T12:10:05;6.30;;;5.40;;
58412;SDS011;44209;52.952;6.790;2023-05-10T12:12:39;8.50;;;5.38;;
58412;SDS011;44209;52.952;6.790;2023-05-10T12:15:12;7.40;;;5.53;;
58412;SDS011;44209;52.952;6.790;2023-05-10T12:17:44;8.10;;;5.57;;
58412;SDS011;44209;52.952;6.790;2023-05-10T12:22:40;7.68;;;5.70;;
58412;SDS011;44209;52.952;6.790;2023-05-10T12:25:09;7.82;;;5.25;;
58412;SDS011;44209;52.952;6.790;2023-05-10T12:27:37;6.70;;;5.28;;
58412;SDS011;44209;52.952;6.790;2023-05-10T12:30:06;5.47;;;4.63;;
58412;SDS011;44209;52.952;6.790;2023-05-10T12:32:39;6.93;;;5.07;;
58412;SDS011;44209;52.952;6.790;2023-05-10T12:35:08;7.35;;;5.28;;
58412;SDS011;44209;52.952;6.790;2023-05-10T12:37:34;6.72;;;5.53;;
58412;SDS011;44209;52.952;6.790;2023-05-10T12:40:07;6.80;;;5.30;;
58412;SDS011;44209;52.952;6.790;2023-05-10T12:42:34;11.15;;;5.78;;
58412;SDS011;44209;52.952;6.790;2023-05-10T12:45:01;7.00;;;5.40;;
58412;SDS011;44209;52.952;6.790;2023-05-10T12:47:28;6.35;;;5.40;;
58412;SDS011;44209;52.952;6.790;2023-05-10T12:49:54;8.68;;;6.43;;
58412;SDS011;44209;52.952;6.790;2023-05-10T12:52:19;5.95;;;5.10;;
58412;SDS011;44209;52.952;6.790;2023-05-10T12:54:47;6.25;;;5.55;;
58412;SDS011;44209;52.952;6.790;2023-05-10T12:57:14;8.70;;;5.75;;
58412;SDS011;44209;52.952;6.790;2023-05-10T12:59:39;6.95;;;5.45;;
58412;SDS011;44209;52.952;6.790;2023-05-10T13:02:05;7.30;;;4.43;;
58412;SDS011;44209;52.952;6.790;2023-05-10T13:04:32;8.48;;;5.10;;
58412;SDS011;44209;52.952;6.790;2023-05-10T13:06:58;6.28;;;4.65;;
58412;SDS011;44209;52.952;6.790;2023-05-10T13:09:26;5.90;;;3.80;;
58412;SDS011;44209;52.952;6.790;2023-05-10T13:11:54;5.55;;;4.20;;
58412;SDS011;44209;52.952;6.790;2023-05-10T13:14:20;6.65;;;3.78;;
58412;SDS011;44209;52.952;6.790;2023-05-10T13:16:46;4.75;;;3.75;;
58412;SDS011;44209;52.952;6.790;2023-05-10T13:19:13;5.85;;;3.70;;
58412;SDS011;44209;52.952;6.790;2023-05-10T13:21:39;4.25;;;3.63;;
58412;SDS011;44209;52.952;6.790;2023-05-10T13:24:06;5.93;;;3.80;;
58412;SDS011;44209;52.952;6.790;2023-05-10T13:26:35;7.47;;;4.05;;
58412;SDS011;44209;52.952;6.790;2023-05-10T13:29:02;5.88;;;4.38;;
58412;SDS011;44209;52.952;6.790;2023-05-10T13:31:28;6.38;;;4.82;;
58412;SDS011;44209;52.952;6.790;2023-05-10T13:33:54;5.78;;;4.70;;
58412;SDS011;44209;52.952;6.790;2023-05-10T13:36:23;6.97;;;5.38;;
58412;SDS011;44209;52.952;6.790;2023-05-10T13:38:48;6.88;;;5.00;;
58412;SDS011;44209;52.952;6.790;2023-05-10T13:41:14;7.60;;;5.82;;
58412;SDS011;44209;52.952;6.790;2023-05-10T13:43:40;8.10;;;5.88;;
58412;SDS011;44209;52.952;6.790;2023-05-10T13:46:06;8.73;;;6.10;;
58412;SDS011;44209;52.952;6.790;2023-05-10T13:48:32;7.30;;;6.20;;
58412;SDS011;44209;52.952;6.790;2023-05-10T13:53:43;10.05;;;6.63;;
58412;SDS011;44209;52.952;6.790;2023-05-10T13:56:20;10.45;;;7.15;;
58412;SDS011;44209;52.952;6.790;2023-05-10T13:58:53;12.18;;;6.82;;
58412;SDS011;44209;52.952;6.790;2023-05-10T14:01:24;10.02;;;7.03;;
58412;SDS011;44209;52.952;6.790;2023-05-10T14:04:13;8.50;;;6.43;;
58412;SDS011;44209;52.952;6.790;2023-05-10T14:06:39;11.00;;;7.20;;
58412;SDS011;44209;52.952;6.790;2023-05-10T14:09:15;9.85;;;6.80;;
58412;SDS011;44209;52.952;6.790;2023-05-10T14:11:56;9.23;;;7.15;;
58412;SDS011;44209;52.952;6.790;2023-05-10T14:14:22;10.48;;;6.78;;
58412;SDS011;44209;52.952;6.790;2023-05-10T14:16:54;9.45;;;6.80;;
58412;SDS011;44209;52.952;6.790;2023-05-10T14:19:22;10.35;;;6.82;;
58412;SDS011;44209;52.952;6.790;2023-05-10T14:24:20;9.10;;;6.53;;
58412;SDS011;44209;52.952;6.790;2023-05-10T14:26:45;10.48;;;6.95;;
58412;SDS011;44209;52.952;6.790;2023-05-10T14:29:14;7.88;;;6.00;;
58412;SDS011;44209;52.952;6.790;2023-05-10T14:31:53;10.23;;;6.93;;
58412;SDS011;44209;52.952;6.790;2023-05-10T14:34:19;7.97;;;6.32;;
58412;SDS011;44209;52.952;6.790;2023-05-10T14:36:47;9.77;;;7.03;;
58412;SDS011;44209;52.952;6.790;2023-05-10T14:39:13;9.52;;;7.07;;
58412;SDS011;44209;52.952;6.790;2023-05-10T14:41:39;11.05;;;6.95;;
58412;SDS011;44209;52.952;6.790;2023-05-10T14:44:12;8.80;;;7.07;;
58412;SDS011;44209;52.952;6.790;2023-05-10T14:46:41;12.70;;;7.45;;
58412;SDS011;44209;52.952;6.790;2023-05-10T14:49:09;9.57;;;6.80;;
58412;SDS011;44209;52.952;6.790;2023-05-10T14:51:35;12.48;;;7.00;;
58412;SDS011;44209;52.952;6.790;2023-05-10T14:54:11;8.35;;;6.80;;
58412;SDS011;44209;52.952;6.790;2023-05-10T14:56:36;9.45;;;6.53;;
58412;SDS011;44209;52.952;6.790;2023-05-10T14:59:02;8.95;;;6.65;;
58412;SDS011;44209;52.952;6.790;2023-05-10T15:01:29;9.68;;;7.20;;
58412;SDS011;44209;52.952;6.790;2023-05-10T15:03:56;10.15;;;6.75;;
58412;SDS011;44209;52.952;6.790;2023-05-10T15:06:30;11.70;;;7.30;;
58412;SDS011;44209;52.952;6.790;2023-05-10T15:09:00;10.88;;;7.43;;
58412;SDS011;44209;52.952;6.790;2023-05-10T15:11:28;9.48;;;7.05;;
58412;SDS011;44209;52.952;6.790;2023-05-10T15:13:54;8.35;;;7.07;;
58412;SDS011;44209;52.952;6.790;2023-05-10T15:16:23;9.32;;;6.93;;
58412;SDS011;44209;52.952;6.790;2023-05-10T15:18:54;10.38;;;6.85;;
58412;SDS011;44209;52.952;6.790;2023-05-10T15:21:23;13.50;;;6.88;;
58412;SDS011;44209;52.952;6.790;2023-05-10T15:23:52;9.98;;;7.05;;